createdAt,value
2022-09-13T00:02:18.063Z,20.20
2022-09-13T00:04:44.930Z,20.20
2022-09-13T00:07:11.643Z,20.20
2022-09-13T00:09:38.463Z,20.20
2022-09-13T00:12:05.398Z,20.20
2022-09-13T00:14:32.174Z,20.20
2022-09-13T00:16:59.015Z,20.20
2022-09-13T00:19:26.072Z,20.20
2022-09-13T00:21:52.846Z,20.20
2022-09-13T00:24:19.614Z,20.20
2022-09-13T00:26:46.327Z,20.20
2022-09-13T00:29:13.120Z,20.40
2022-09-13T00:31:40.273Z,20.20
2022-09-13T00:34:07.076Z,20.30
2022-09-13T00:36:34.156Z,20.30
2022-09-13T00:39:01.480Z,20.30
2022-09-13T00:41:28.583Z,20.30
2022-09-13T00:44:01.793Z,20.30
2022-09-13T00:46:37.625Z,20.40
2022-09-13T00:49:21.168Z,20.40
2022-09-13T00:51:58.530Z,20.40
2022-09-13T00:54:31.338Z,20.40
2022-09-13T00:57:02.679Z,20.40
2022-09-13T00:59:37.346Z,20.40
2022-09-13T01:02:05.877Z,20.70
2022-09-13T01:04:39.336Z,20.50
2022-09-13T01:07:13.183Z,20.50
2022-09-13T01:09:45.963Z,20.50
2022-09-13T01:12:53.464Z,20.60
2022-09-13T01:15:21.222Z,20.60
2022-09-13T01:17:50.539Z,20.60
2022-09-13T01:20:17.380Z,20.70
2022-09-13T01:23:20.333Z,20.70
2022-09-13T01:26:07.892Z,20.70
2022-09-13T01:29:33.842Z,20.70
2022-09-13T01:32:24.956Z,20.70
2022-09-13T01:35:46.046Z,20.70
2022-09-13T01:38:25.157Z,20.70
2022-09-13T01:41:33.643Z,20.70
2022-09-13T01:44:28.454Z,20.70
2022-09-13T01:47:34.409Z,20.60
2022-09-13T01:50:22.892Z,20.60
2022-09-13T01:52:58.878Z,20.60
2022-09-13T01:55:41.693Z,20.60
2022-09-13T01:58:39.461Z,20.60
2022-09-13T02:01:23.231Z,20.50
2022-09-13T02:03:59.795Z,20.60
2022-09-13T02:06:40.461Z,20.50
2022-09-13T02:09:21.548Z,20.40
2022-09-13T02:11:58.083Z,20.40
2022-09-13T02:14:37.440Z,20.50
2022-09-13T02:17:09.791Z,20.40
2022-09-13T02:19:57.636Z,20.50
2022-09-13T02:22:33.059Z,20.50
2022-09-13T02:25:15.038Z,20.50
2022-09-13T02:27:48.403Z,20.50
2022-09-13T02:30:15.918Z,20.50
2022-09-13T02:32:57.482Z,20.50
2022-09-13T02:35:35.582Z,20.50
2022-09-13T02:38:15.246Z,20.50
2022-09-13T02:40:56.324Z,20.60
2022-09-13T02:43:33.462Z,20.60
2022-09-13T02:46:35.625Z,20.60
2022-09-13T02:49:46.845Z,20.60
2022-09-13T02:52:34.615Z,20.70
2022-09-13T02:55:25.987Z,20.70
2022-09-13T02:58:11.542Z,20.60
2022-09-13T03:00:39.073Z,20.70
2022-09-13T03:03:11.713Z,20.70
2022-09-13T03:05:38.518Z,20.70
2022-09-13T03:08:10.051Z,20.70
2022-09-13T03:11:20.679Z,20.70
2022-09-13T03:14:40.309Z,20.80
2022-09-13T03:17:15.455Z,20.80
2022-09-13T03:20:09.349Z,20.90
2022-09-13T03:22:57.014Z,20.90
2022-09-13T03:25:43.610Z,20.90
2022-09-13T03:28:44.503Z,20.90
2022-09-13T03:31:46.092Z,20.90
2022-09-13T03:34:21.954Z,20.90
2022-09-13T03:37:32.583Z,20.90
2022-09-13T03:40:10.729Z,20.90
2022-09-13T03:42:58.605Z,21.00
2022-09-13T03:45:31.527Z,20.90
2022-09-13T03:47:59.635Z,21.00
2022-09-13T03:50:27.509Z,20.90
2022-09-13T03:53:04.542Z,20.80
2022-09-13T03:55:34.873Z,20.90
2022-09-13T03:58:01.859Z,20.90
2022-09-13T04:00:29.488Z,20.90
2022-09-13T04:02:56.280Z,20.90
2022-09-13T04:05:23.065Z,20.90
2022-09-13T04:07:49.822Z,20.90
2022-09-13T04:10:16.655Z,20.90
2022-09-13T04:12:43.440Z,20.90
2022-09-13T04:15:10.282Z,20.90
2022-09-13T04:17:37.174Z,20.90
2022-09-13T04:20:05.517Z,20.90
2022-09-13T04:22:33.508Z,20.90
2022-09-13T04:25:02.536Z,20.90
2022-09-13T04:27:29.787Z,20.90
2022-09-13T04:29:56.563Z,20.80
2022-09-13T04:32:23.466Z,20.80
2022-09-13T04:34:50.189Z,20.80
2022-09-13T04:37:17.000Z,20.80
2022-09-13T04:39:43.920Z,20.80
2022-09-13T04:42:11.403Z,20.80
2022-09-13T04:44:38.290Z,20.90
2022-09-13T04:47:06.310Z,20.80
2022-09-13T04:49:33.820Z,20.80
2022-09-13T04:52:06.419Z,20.80
2022-09-13T04:54:33.287Z,20.80
2022-09-13T04:57:00.135Z,20.80
2022-09-13T04:59:27.778Z,20.80
2022-09-13T05:01:54.608Z,20.80
2022-09-13T05:04:21.367Z,20.80
2022-09-13T05:06:50.994Z,20.80
2022-09-13T05:09:17.999Z,20.90
2022-09-13T05:11:44.988Z,20.90
2022-09-13T05:14:12.813Z,20.90
2022-09-13T05:16:39.958Z,20.90
2022-09-13T05:19:07.029Z,20.90
2022-09-13T05:21:33.980Z,20.90
2022-09-13T05:24:00.806Z,20.90
2022-09-13T05:26:31.173Z,20.90
2022-09-13T05:29:01.519Z,20.90
2022-09-13T05:31:36.518Z,20.90
2022-09-13T05:34:10.845Z,21.00
2022-09-13T05:36:38.998Z,21.00
2022-09-13T05:41:54.953Z,21.00
2022-09-13T05:44:21.833Z,21.00
2022-09-13T05:46:51.630Z,21.10
2022-09-13T05:49:18.398Z,21.10
2022-09-13T05:51:45.770Z,21.10
2022-09-13T05:54:13.626Z,21.20
2022-09-13T05:56:40.745Z,21.20
2022-09-13T05:59:08.910Z,21.20
2022-09-13T06:01:35.854Z,21.30
2022-09-13T06:04:02.770Z,21.30
2022-09-13T06:06:29.523Z,21.40
2022-09-13T06:08:57.645Z,21.40
2022-09-13T06:11:26.575Z,21.50
2022-09-13T06:13:53.721Z,21.50
2022-09-13T06:16:21.136Z,21.50
2022-09-13T06:18:48.860Z,21.60
2022-09-13T06:21:20.330Z,21.60
2022-09-13T06:23:53.330Z,21.60
2022-09-13T06:26:24.183Z,21.70
2022-09-13T06:28:54.516Z,21.80
2022-09-13T06:31:25.790Z,21.80
2022-09-13T06:33:59.692Z,21.90
2022-09-13T06:36:27.433Z,22.00
2022-09-13T06:38:54.205Z,22.00
2022-09-13T06:41:24.054Z,22.10
2022-09-13T06:43:57.385Z,22.10
2022-09-13T06:46:26.271Z,22.20
2022-09-13T06:48:53.377Z,22.30
2022-09-13T06:51:23.519Z,22.30
2022-09-13T06:53:52.198Z,22.40
2022-09-13T06:56:22.837Z,22.50
2022-09-13T06:58:52.611Z,22.50
2022-09-13T07:01:29.614Z,22.60
2022-09-13T07:04:03.643Z,22.60
2022-09-13T07:06:34.922Z,22.70
2022-09-13T07:09:05.151Z,22.80
2022-09-13T07:11:38.696Z,22.80
2022-09-13T07:14:09.496Z,22.80
2022-09-13T07:16:38.321Z,22.90
2022-09-13T07:19:12.457Z,23.00
2022-09-13T07:21:39.307Z,23.00
2022-09-13T07:24:06.720Z,23.10
2022-09-13T07:26:34.329Z,23.20
2022-09-13T07:29:05.154Z,23.30
2022-09-13T07:31:41.730Z,23.30
2022-09-13T07:34:14.795Z,23.40
2022-09-13T07:36:42.699Z,23.50
2022-09-13T07:39:13.737Z,23.60
2022-09-13T07:41:43.223Z,23.70
2022-09-13T07:44:11.742Z,23.70
2022-09-13T07:46:43.707Z,23.80
2022-09-13T07:49:18.268Z,23.90
2022-09-13T07:51:46.119Z,24.00
2022-09-13T07:54:17.599Z,24.20
2022-09-13T07:56:45.438Z,24.30
2022-09-13T07:59:16.079Z,24.50
2022-09-13T08:01:47.268Z,24.60
2022-09-13T08:04:18.810Z,24.80
2022-09-13T08:06:46.979Z,25.00
2022-09-13T08:09:14.498Z,25.10
2022-09-13T08:11:48.530Z,25.30
2022-09-13T08:14:18.813Z,25.50
2022-09-13T08:16:46.313Z,25.70
2022-09-13T08:19:16.732Z,25.90
2022-09-13T08:21:44.655Z,26.00
2022-09-13T08:24:23.445Z,26.30
2022-09-13T08:26:52.116Z,26.60
2022-09-13T08:29:19.321Z,27.00
2022-09-13T08:31:46.064Z,27.30
2022-09-13T08:34:15.869Z,27.70
2022-09-13T08:36:43.485Z,28.00
2022-09-13T08:39:17.826Z,28.30
2022-09-13T08:42:09.010Z,28.50
2022-09-13T08:44:56.226Z,28.80
2022-09-13T08:47:41.176Z,29.10
2022-09-13T08:50:19.608Z,29.50
2022-09-13T08:53:03.799Z,29.80
2022-09-13T08:55:57.954Z,30.20
2022-09-13T08:58:39.322Z,30.70
2022-09-13T09:01:13.212Z,31.20
2022-09-13T09:04:06.078Z,31.70
2022-09-13T09:06:38.041Z,32.20
2022-09-13T09:09:10.711Z,32.70
2022-09-13T09:12:17.213Z,33.20
2022-09-13T09:15:05.263Z,33.70
2022-09-13T09:18:10.640Z,34.30
2022-09-13T09:20:43.746Z,34.80
2022-09-13T09:23:20.502Z,35.20
2022-09-13T09:25:55.015Z,35.60
2022-09-13T09:28:22.045Z,36.00
2022-09-13T09:31:04.272Z,36.30
2022-09-13T09:33:59.805Z,36.60
2022-09-13T09:36:37.690Z,36.90
2022-09-13T09:39:06.442Z,37.10
2022-09-13T09:41:36.907Z,37.30
2022-09-13T09:44:22.849Z,37.50
2022-09-13T09:46:59.517Z,37.60
2022-09-13T09:49:46.532Z,37.80
2022-09-13T09:52:19.009Z,38.10
2022-09-13T09:54:48.343Z,38.20
2022-09-13T09:57:15.237Z,38.40
2022-09-13T09:59:41.956Z,38.50
2022-09-13T10:02:22.172Z,38.60
2022-09-13T10:05:01.099Z,38.60
2022-09-13T10:07:34.499Z,38.60
2022-09-13T10:10:20.465Z,38.60
2022-09-13T10:12:53.586Z,38.40
2022-09-13T10:15:33.600Z,38.30
2022-09-13T10:18:42.372Z,38.10
2022-09-13T10:21:07.324Z,37.80
2022-09-13T10:23:37.026Z,37.50
2022-09-13T10:26:16.549Z,37.30
2022-09-13T10:28:52.186Z,37.10
2022-09-13T10:31:21.410Z,36.90
2022-09-13T10:33:51.349Z,36.70
2022-09-13T10:36:52.596Z,36.50
2022-09-13T10:39:23.760Z,36.20
2022-09-13T10:42:05.307Z,36.00
2022-09-13T10:44:56.673Z,35.80
2022-09-13T10:47:35.624Z,35.60
2022-09-13T10:50:31.480Z,35.40
2022-09-13T10:53:00.089Z,35.10
2022-09-13T10:55:40.721Z,35.00
2022-09-13T10:58:08.050Z,34.80
2022-09-13T11:01:14.209Z,34.70
2022-09-13T11:04:23.830Z,34.50
2022-09-13T11:07:03.874Z,34.40
2022-09-13T11:09:52.878Z,34.20
2022-09-13T11:12:58.649Z,34.20
2022-09-13T11:16:06.915Z,34.20
2022-09-13T11:18:55.521Z,34.40
2022-09-13T11:21:32.467Z,34.50
2022-09-13T11:24:27.301Z,34.70
2022-09-13T11:27:10.499Z,34.80
2022-09-13T11:29:58.739Z,35.00
2022-09-13T11:33:03.703Z,35.00
2022-09-13T11:36:07.570Z,35.00
2022-09-13T11:39:09.771Z,35.10
2022-09-13T11:42:11.749Z,35.20
2022-09-13T11:45:03.266Z,35.20
2022-09-13T11:47:54.577Z,35.20
2022-09-13T11:50:47.178Z,35.10
2022-09-13T11:53:44.211Z,35.10
2022-09-13T11:56:40.237Z,35.00
2022-09-13T11:59:45.051Z,35.00
2022-09-13T12:02:40.610Z,35.00
2022-09-13T12:05:33.591Z,35.00
2022-09-13T12:08:10.075Z,34.90
2022-09-13T12:11:02.501Z,34.90
2022-09-13T12:13:52.520Z,34.80
2022-09-13T12:16:50.245Z,34.70
2022-09-13T12:19:46.464Z,34.50
2022-09-13T12:22:14.262Z,34.40
2022-09-13T12:24:50.486Z,34.30
2022-09-13T12:27:40.889Z,34.30
2022-09-13T12:30:26.082Z,34.20
2022-09-13T12:32:58.653Z,34.10
2022-09-13T12:35:48.099Z,34.10
2022-09-13T12:38:37.365Z,34.00
2022-09-13T12:41:41.738Z,33.80
2022-09-13T12:44:45.673Z,33.80
2022-09-13T12:47:24.084Z,33.60
2022-09-13T12:50:43.346Z,33.50
2022-09-13T12:53:59.450Z,33.40
2022-09-13T12:56:46.779Z,33.30
2022-09-13T12:59:36.750Z,33.20
2022-09-13T13:02:34.881Z,33.10
2022-09-13T13:05:35.970Z,33.10
2022-09-13T13:08:17.806Z,32.90
2022-09-13T13:10:44.894Z,32.90
2022-09-13T13:13:25.058Z,32.70
2022-09-13T13:15:51.886Z,32.70
2022-09-13T13:18:37.044Z,32.60
2022-09-13T13:21:23.022Z,32.50
2022-09-13T13:24:15.597Z,32.40
2022-09-13T13:26:56.568Z,32.30
2022-09-13T13:29:32.562Z,32.30
2022-09-13T13:32:08.168Z,32.30
2022-09-13T13:34:46.952Z,32.20
2022-09-13T13:37:18.581Z,32.20
2022-09-13T13:39:48.273Z,32.30
2022-09-13T13:42:35.305Z,32.20
2022-09-13T13:45:02.069Z,32.20
2022-09-13T13:47:28.738Z,32.30
2022-09-13T13:50:19.149Z,32.20
2022-09-13T13:52:56.625Z,32.10
2022-09-13T13:55:30.146Z,32.10
2022-09-13T13:58:30.366Z,32.10
2022-09-13T14:01:01.393Z,32.10
2022-09-13T14:04:05.916Z,32.10
2022-09-13T14:07:06.014Z,32.10
2022-09-13T14:10:15.251Z,32.10
2022-09-13T14:13:45.760Z,32.10
2022-09-13T14:16:56.545Z,32.00
2022-09-13T14:19:49.227Z,31.90
2022-09-13T14:22:25.194Z,31.90
2022-09-13T14:25:24.505Z,31.80
2022-09-13T14:27:58.298Z,31.80
2022-09-13T14:30:34.859Z,31.60
2022-09-13T14:33:01.852Z,31.60
2022-09-13T14:35:40.962Z,31.50
2022-09-13T14:38:21.227Z,31.40
2022-09-13T14:40:57.742Z,31.20
2022-09-13T14:43:28.646Z,31.10
2022-09-13T14:46:15.288Z,31.10
2022-09-13T14:49:26.305Z,31.00
2022-09-13T14:52:04.414Z,30.90
2022-09-13T14:54:48.542Z,30.90
2022-09-13T14:57:34.018Z,30.70
2022-09-13T15:00:18.573Z,30.70
2022-09-13T15:03:10.857Z,30.60
2022-09-13T15:05:39.040Z,30.50
2022-09-13T15:08:33.589Z,30.40
2022-09-13T15:11:05.574Z,30.30
2022-09-13T15:13:34.554Z,30.20
2022-09-13T15:16:01.558Z,30.10
2022-09-13T15:18:36.606Z,30.00
2022-09-13T15:21:16.338Z,29.90
2022-09-13T15:23:53.446Z,29.80
2022-09-13T15:26:25.688Z,29.60
2022-09-13T15:28:55.260Z,29.50
2022-09-13T15:31:35.890Z,29.40
2022-09-13T15:34:23.640Z,29.20
2022-09-13T15:37:04.932Z,29.10
2022-09-13T15:39:51.599Z,28.90
2022-09-13T15:42:18.420Z,28.80
2022-09-13T15:44:45.325Z,28.70
2022-09-13T15:47:20.113Z,28.50
2022-09-13T15:49:52.078Z,28.30
2022-09-13T15:52:20.514Z,28.20
2022-09-13T15:54:51.280Z,28.10
2022-09-13T15:57:25.138Z,27.80
2022-09-13T15:59:55.634Z,27.80
2022-09-13T16:02:29.146Z,27.60
2022-09-13T16:04:56.490Z,27.40
2022-09-13T16:07:25.792Z,27.30
2022-09-13T16:09:53.570Z,27.10
2022-09-13T16:12:24.204Z,26.90
2022-09-13T16:14:53.286Z,26.70
2022-09-13T16:17:26.131Z,26.60
2022-09-13T16:19:54.412Z,26.50
2022-09-13T16:22:22.134Z,26.30
2022-09-13T16:24:49.023Z,26.20
2022-09-13T16:27:18.761Z,26.00
2022-09-13T16:29:46.915Z,25.90
2022-09-13T16:32:13.845Z,25.80
2022-09-13T16:34:40.591Z,25.70
2022-09-13T16:37:07.507Z,25.60
2022-09-13T16:39:34.276Z,25.40
2022-09-13T16:42:01.027Z,25.30
2022-09-13T16:44:27.818Z,25.30
2022-09-13T16:46:54.644Z,25.00
2022-09-13T16:49:21.401Z,24.90
2022-09-13T16:51:48.181Z,24.70
2022-09-13T16:54:14.984Z,24.60
2022-09-13T16:56:41.895Z,24.60
2022-09-13T16:59:08.655Z,24.40
2022-09-13T17:01:36.169Z,24.20
2022-09-13T17:04:03.692Z,24.20
2022-09-13T17:06:30.471Z,24.10
2022-09-13T17:09:03.166Z,23.90
2022-09-13T17:11:35.950Z,23.80
2022-09-13T17:14:06.489Z,23.80
2022-09-13T17:16:38.604Z,23.70
2022-09-13T17:19:13.219Z,23.60
2022-09-13T17:21:40.228Z,23.50
2022-09-13T17:24:11.386Z,23.50
2022-09-13T17:26:40.860Z,23.40
2022-09-13T17:29:07.679Z,23.20
2022-09-13T17:31:35.571Z,23.30
2022-09-13T17:34:02.340Z,23.20
2022-09-13T17:36:29.114Z,23.10
2022-09-13T17:38:57.469Z,23.10
2022-09-13T17:41:26.009Z,23.10
2022-09-13T17:43:54.316Z,23.10
2022-09-13T17:46:25.340Z,23.00
2022-09-13T17:48:54.710Z,23.00
2022-09-13T17:51:25.839Z,23.00
2022-09-13T17:54:00.339Z,22.80
2022-09-13T17:56:40.311Z,22.80
2022-09-13T17:59:15.527Z,22.70
2022-09-13T18:01:46.928Z,22.70
2022-09-13T18:04:15.877Z,22.70
2022-09-13T18:06:43.266Z,22.50
2022-09-13T18:09:12.532Z,22.40
2022-09-13T18:11:40.561Z,22.40
2022-09-13T18:14:12.400Z,22.30
2022-09-13T18:16:39.778Z,22.30
2022-09-13T18:19:07.259Z,22.20
2022-09-13T18:21:34.286Z,22.20
2022-09-13T18:24:01.658Z,22.10
2022-09-13T18:26:32.578Z,22.10
2022-09-13T18:29:04.132Z,22.00
2022-09-13T18:31:34.409Z,22.00
2022-09-13T18:34:06.990Z,22.00
2022-09-13T18:36:35.687Z,21.90
2022-09-13T18:39:06.246Z,21.90
2022-09-13T18:41:41.825Z,21.90
2022-09-13T18:44:10.950Z,21.80
2022-09-13T18:46:38.827Z,21.70
2022-09-13T18:49:07.060Z,21.70
2022-09-13T18:51:38.899Z,21.70
2022-09-13T18:54:10.875Z,21.70
2022-09-13T18:56:37.676Z,21.70
2022-09-13T18:59:09.519Z,21.60
2022-09-13T19:01:40.687Z,21.70
2022-09-13T19:04:13.715Z,21.60
2022-09-13T19:06:47.230Z,21.60
2022-09-13T19:09:14.874Z,21.60
2022-09-13T19:11:48.883Z,21.60
2022-09-13T19:14:28.494Z,21.50
2022-09-13T19:17:00.981Z,21.60
2022-09-13T19:19:27.893Z,21.50
2022-09-13T19:21:54.887Z,21.50
2022-09-13T19:24:22.015Z,21.50
2022-09-13T19:26:51.920Z,21.40
2022-09-13T19:29:22.748Z,21.50
2022-09-13T19:31:52.614Z,21.40
2022-09-13T19:34:22.097Z,21.40
2022-09-13T19:36:53.811Z,21.40
2022-09-13T19:39:20.806Z,21.40
2022-09-13T19:41:47.565Z,21.30
2022-09-13T19:44:14.827Z,21.60
2022-09-13T19:46:42.870Z,21.30
2022-09-13T19:49:14.482Z,21.30
2022-09-13T19:51:45.502Z,21.20
2022-09-13T19:54:17.992Z,21.20
2022-09-13T19:56:44.823Z,21.20
2022-09-13T19:59:15.616Z,21.10
2022-09-13T20:01:45.347Z,21.20
2022-09-13T20:04:19.171Z,21.10
2022-09-13T20:06:51.453Z,21.10
2022-09-13T20:09:20.525Z,21.10
2022-09-13T20:11:48.517Z,21.10
2022-09-13T20:14:18.792Z,21.20
2022-09-13T20:16:45.875Z,21.10
2022-09-13T20:22:08.419Z,21.10
2022-09-13T20:24:35.646Z,21.10
2022-09-13T20:27:02.596Z,21.10
2022-09-13T20:29:29.392Z,21.00
2022-09-13T20:31:56.112Z,21.00
2022-09-13T20:34:22.849Z,21.00
2022-09-13T20:36:49.638Z,20.90
2022-09-13T20:39:16.883Z,21.00
2022-09-13T20:41:44.234Z,21.00
2022-09-13T20:44:11.607Z,21.00
2022-09-13T20:46:40.258Z,21.00
2022-09-13T20:49:09.245Z,21.00
2022-09-13T20:51:37.407Z,21.00
2022-09-13T20:54:05.404Z,21.00
2022-09-13T20:56:34.126Z,21.00
2022-09-13T20:59:01.218Z,21.00
2022-09-13T21:01:31.460Z,21.00
2022-09-13T21:03:59.912Z,21.00
2022-09-13T21:06:29.584Z,21.00
2022-09-13T21:08:59.780Z,21.00
2022-09-13T21:11:35.899Z,21.00
2022-09-13T21:14:07.895Z,20.90
2022-09-13T21:16:39.691Z,20.90
2022-09-13T21:19:07.839Z,20.90
2022-09-13T21:21:38.612Z,21.00
2022-09-13T21:24:09.554Z,20.90
2022-09-13T21:26:41.911Z,20.90
2022-09-13T21:29:10.143Z,20.90
2022-09-13T21:31:37.734Z,20.90
2022-09-13T21:34:17.868Z,20.90
2022-09-13T21:36:46.494Z,20.80
2022-09-13T21:39:14.950Z,20.90
2022-09-13T21:41:42.946Z,20.80
2022-09-13T21:44:10.304Z,20.80
2022-09-13T21:46:39.220Z,20.80
2022-09-13T21:49:11.342Z,20.80
2022-09-13T21:51:40.965Z,20.80
2022-09-13T21:54:11.563Z,20.90
2022-09-13T21:56:42.047Z,20.80
2022-09-13T21:59:14.583Z,20.80
2022-09-13T22:01:46.148Z,20.90
2022-09-13T22:04:20.194Z,20.90
2022-09-13T22:06:52.065Z,20.90
2022-09-13T22:09:20.971Z,20.80
2022-09-13T22:11:49.590Z,20.90
2022-09-13T22:14:19.862Z,20.90
2022-09-13T22:16:46.783Z,20.90
2022-09-13T22:19:22.081Z,20.90
2022-09-13T22:21:53.477Z,20.90
2022-09-13T22:24:23.473Z,20.90
2022-09-13T22:26:52.915Z,20.90
2022-09-13T22:29:20.974Z,20.90
2022-09-13T22:31:50.468Z,20.80
2022-09-13T22:34:22.247Z,20.80
2022-09-13T22:36:49.374Z,20.80
2022-09-13T22:39:17.433Z,20.80
2022-09-13T22:41:44.912Z,20.70
2022-09-13T22:44:12.442Z,20.70
2022-09-13T22:46:43.081Z,20.70
2022-09-13T22:49:17.988Z,20.70
2022-09-13T22:51:46.439Z,20.70
2022-09-13T22:54:15.632Z,20.60
2022-09-13T22:56:42.882Z,20.70
2022-09-13T22:59:21.246Z,20.60
2022-09-13T23:01:49.119Z,20.60
2022-09-13T23:04:16.435Z,20.50
2022-09-13T23:06:46.550Z,20.60
2022-09-13T23:09:18.072Z,20.60
2022-09-13T23:11:45.691Z,20.50
2022-09-13T23:14:15.722Z,20.60
2022-09-13T23:16:46.614Z,20.70
2022-09-13T23:19:14.981Z,20.40
2022-09-13T23:21:42.910Z,20.50
2022-09-13T23:24:18.268Z,20.50
2022-09-13T23:26:46.467Z,20.40
2022-09-13T23:29:20.316Z,20.50
2022-09-13T23:31:48.011Z,20.40
2022-09-13T23:34:15.517Z,20.40
2022-09-13T23:36:44.423Z,20.40
2022-09-13T23:39:21.696Z,20.40
2022-09-13T23:41:50.901Z,20.40
2022-09-13T23:44:17.849Z,20.30
2022-09-13T23:46:45.267Z,20.40
2022-09-13T23:49:12.101Z,20.40
2022-09-13T23:51:39.147Z,20.40
2022-09-13T23:54:06.405Z,20.40
2022-09-13T23:56:34.999Z,20.40
2022-09-13T23:59:04.129Z,20.40
